createdAt,value
2022-10-19T00:00:01.760Z,3.92
2022-10-19T00:02:29.416Z,4.43
2022-10-19T00:04:57.117Z,3.58
2022-10-19T00:07:24.746Z,3.35
2022-10-19T00:09:52.728Z,3.45
2022-10-19T00:12:20.373Z,3.03
2022-10-19T00:14:49.325Z,3.40
2022-10-19T00:17:17.425Z,2.97
2022-10-19T00:19:45.039Z,3.50
2022-10-19T00:22:14.062Z,3.55
2022-10-19T00:24:41.976Z,3.40
2022-10-19T00:27:09.604Z,3.42
2022-10-19T00:29:39.747Z,3.40
2022-10-19T00:32:08.702Z,3.33
2022-10-19T00:34:36.317Z,3.40
2022-10-19T00:37:04.101Z,2.97
2022-10-19T00:39:31.725Z,2.92
2022-10-19T00:41:59.394Z,3.50
2022-10-19T00:44:59.614Z,3.00
2022-10-19T00:47:32.762Z,2.75
2022-10-19T00:50:01.065Z,2.70
2022-10-19T00:52:29.090Z,2.47
2022-10-19T00:54:58.768Z,2.40
2022-10-19T00:57:30.574Z,2.65
2022-10-19T00:59:59.668Z,2.35
2022-10-19T01:02:28.685Z,2.42
2022-10-19T01:04:56.777Z,2.53
2022-10-19T01:07:26.243Z,2.83
2022-10-19T01:09:54.362Z,2.60
2022-10-19T01:12:36.323Z,3.08
2022-10-19T01:15:20.345Z,3.13
2022-10-19T01:17:57.391Z,2.92
2022-10-19T01:20:43.094Z,2.83
2022-10-19T01:23:29.733Z,3.00
2022-10-19T01:26:11.325Z,3.10
2022-10-19T01:28:48.666Z,2.90
2022-10-19T01:31:25.010Z,2.67
2022-10-19T01:33:59.980Z,3.00
2022-10-19T01:39:04.041Z,2.33
2022-10-19T01:41:39.908Z,2.92
2022-10-19T01:44:14.938Z,2.60
2022-10-19T01:46:48.021Z,2.40
2022-10-19T01:49:23.705Z,2.10
2022-10-19T01:51:56.454Z,2.40
2022-10-19T01:54:27.563Z,2.50
2022-10-19T01:56:59.297Z,2.58
2022-10-19T01:59:28.187Z,2.58
2022-10-19T02:01:58.764Z,2.58
2022-10-19T02:04:27.019Z,2.40
2022-10-19T02:09:24.048Z,2.35
2022-10-19T02:11:57.557Z,2.40
2022-10-19T02:14:30.074Z,2.28
2022-10-19T02:17:04.186Z,2.40
2022-10-19T02:19:31.904Z,3.35
2022-10-19T02:22:02.854Z,2.78
2022-10-19T02:24:30.717Z,3.80
2022-10-19T02:27:00.513Z,3.20
2022-10-19T02:29:28.823Z,3.17
2022-10-19T02:34:25.376Z,3.43
2022-10-19T02:36:53.140Z,3.17
2022-10-19T02:39:21.430Z,3.20
2022-10-19T02:44:22.677Z,3.45
2022-10-19T02:46:56.056Z,2.58
2022-10-19T02:49:26.456Z,3.72
2022-10-19T02:52:00.142Z,2.50
2022-10-19T02:54:28.936Z,2.70
2022-10-19T02:56:56.845Z,2.40
2022-10-19T02:59:24.734Z,2.65
2022-10-19T03:01:52.408Z,2.83
2022-10-19T03:04:20.059Z,2.63
2022-10-19T03:06:49.021Z,2.95
2022-10-19T03:09:16.705Z,2.75
2022-10-19T03:11:44.285Z,2.90
2022-10-19T03:14:12.156Z,2.95
2022-10-19T03:16:39.721Z,2.90
2022-10-19T03:19:07.576Z,2.38
2022-10-19T03:21:35.640Z,2.95
2022-10-19T03:24:04.729Z,2.90
2022-10-19T03:26:32.369Z,2.60
2022-10-19T03:29:01.389Z,2.80
2022-10-19T03:31:29.088Z,2.20
2022-10-19T03:33:56.685Z,3.00
2022-10-19T03:36:25.744Z,2.70
2022-10-19T03:38:54.027Z,3.10
2022-10-19T03:43:51.312Z,2.95
2022-10-19T03:46:19.910Z,3.03
2022-10-19T03:48:47.945Z,2.67
2022-10-19T03:51:18.513Z,2.75
2022-10-19T03:53:46.786Z,2.72
2022-10-19T03:58:46.157Z,2.90
2022-10-19T04:01:15.882Z,2.72
2022-10-19T04:03:43.932Z,2.90
2022-10-19T04:06:18.192Z,2.65
2022-10-19T04:08:50.027Z,2.83
2022-10-19T04:11:19.129Z,2.85
2022-10-19T04:13:51.018Z,2.85
2022-10-19T04:16:20.609Z,2.85
2022-10-19T04:18:48.781Z,2.45
2022-10-19T04:21:25.537Z,2.92
2022-10-19T04:24:00.409Z,2.58
2022-10-19T04:26:28.323Z,2.50
2022-10-19T04:28:59.515Z,2.33
2022-10-19T04:31:28.168Z,2.88
2022-10-19T04:33:56.268Z,2.70
2022-10-19T04:36:24.506Z,2.55
2022-10-19T04:38:52.498Z,2.67
2022-10-19T04:41:22.046Z,2.50
2022-10-19T04:43:51.175Z,2.55
2022-10-19T04:46:20.993Z,2.95
2022-10-19T04:48:49.331Z,3.28
2022-10-19T04:53:48.177Z,2.80
2022-10-19T04:56:17.972Z,2.72
2022-10-19T04:58:46.088Z,2.75
2022-10-19T05:01:15.566Z,2.40
2022-10-19T05:03:47.495Z,2.20
2022-10-19T05:06:17.713Z,2.78
2022-10-19T05:08:45.297Z,2.72
2022-10-19T05:11:18.033Z,2.90
2022-10-19T05:13:47.712Z,2.90
2022-10-19T05:16:17.813Z,3.20
2022-10-19T05:18:49.838Z,2.60
2022-10-19T05:21:18.201Z,2.38
2022-10-19T05:26:15.397Z,2.58
2022-10-19T05:28:44.623Z,2.72
2022-10-19T05:31:14.666Z,2.25
2022-10-19T05:33:43.585Z,2.50
2022-10-19T05:36:14.610Z,2.67
2022-10-19T05:38:42.649Z,2.63
2022-10-19T05:41:10.569Z,3.00
2022-10-19T05:43:39.313Z,2.90
2022-10-19T05:46:09.391Z,2.78
2022-10-19T05:48:39.327Z,3.00
2022-10-19T05:51:08.585Z,2.65
2022-10-19T05:56:16.663Z,2.97
2022-10-19T05:58:44.407Z,3.15
2022-10-19T06:01:12.184Z,3.28
2022-10-19T06:03:40.284Z,3.35
2022-10-19T06:06:09.794Z,2.70
2022-10-19T06:08:39.549Z,3.13
2022-10-19T06:11:09.026Z,2.50
2022-10-19T06:13:37.027Z,2.90
2022-10-19T06:16:05.315Z,2.90
2022-10-19T06:18:35.428Z,3.15
2022-10-19T06:21:08.992Z,3.03
2022-10-19T06:23:39.058Z,2.78
2022-10-19T06:26:08.669Z,2.55
2022-10-19T06:28:38.106Z,2.90
2022-10-19T06:31:08.510Z,3.28
2022-10-19T06:33:37.356Z,2.92
2022-10-19T06:36:08.476Z,2.80
2022-10-19T06:38:36.271Z,2.80
2022-10-19T06:41:05.759Z,2.70
2022-10-19T06:43:34.043Z,3.72
2022-10-19T06:46:05.357Z,2.70
2022-10-19T06:48:33.082Z,2.88
2022-10-19T06:51:05.905Z,2.35
2022-10-19T06:53:34.374Z,2.70
2022-10-19T06:56:04.143Z,2.75
2022-10-19T06:58:36.100Z,2.28
2022-10-19T07:01:05.115Z,3.05
2022-10-19T07:03:32.782Z,2.90
2022-10-19T07:06:04.813Z,2.85
2022-10-19T07:08:33.501Z,3.92
2022-10-19T07:11:02.825Z,3.67
2022-10-19T07:13:32.311Z,4.22
2022-10-19T07:16:05.513Z,3.60
2022-10-19T07:18:34.991Z,3.10
2022-10-19T07:21:04.504Z,2.95
2022-10-19T07:23:33.662Z,2.97
2022-10-19T07:26:05.747Z,3.10
2022-10-19T07:28:33.950Z,2.95
2022-10-19T07:31:06.204Z,2.88
2022-10-19T07:33:34.059Z,2.65
2022-10-19T07:36:02.492Z,2.38
2022-10-19T07:38:31.573Z,2.30
2022-10-19T07:41:04.385Z,2.08
2022-10-19T07:43:32.137Z,1.73
2022-10-19T07:46:01.107Z,2.45
2022-10-19T07:48:31.542Z,1.58
2022-10-19T07:50:59.600Z,1.63
2022-10-19T07:53:27.196Z,1.63
2022-10-19T07:55:54.786Z,1.88
2022-10-19T07:58:22.523Z,1.80
2022-10-19T08:00:50.167Z,1.70
2022-10-19T08:06:08.361Z,2.17
2022-10-19T08:08:37.134Z,2.35
2022-10-19T08:11:08.725Z,2.33
2022-10-19T08:13:36.821Z,2.03
2022-10-19T08:16:04.543Z,1.98
2022-10-19T08:21:08.623Z,2.38
2022-10-19T08:23:36.239Z,2.33
2022-10-19T08:26:03.914Z,2.20
2022-10-19T08:28:31.518Z,1.77
2022-10-19T08:30:59.143Z,1.90
2022-10-19T08:33:27.542Z,1.85
2022-10-19T08:35:55.185Z,1.77
2022-10-19T08:38:24.145Z,2.20
2022-10-19T08:40:51.936Z,2.13
2022-10-19T08:43:25.257Z,2.05
2022-10-19T08:46:01.816Z,2.15
2022-10-19T08:48:32.912Z,1.88
2022-10-19T08:51:02.717Z,1.80
2022-10-19T08:53:41.206Z,1.70
2022-10-19T08:56:38.907Z,2.03
2022-10-19T08:59:14.486Z,1.95
2022-10-19T09:01:48.209Z,1.95
2022-10-19T09:04:25.187Z,2.15
2022-10-19T09:07:08.181Z,2.10
2022-10-19T09:09:43.729Z,2.00
2022-10-19T09:12:18.756Z,2.45
2022-10-19T09:14:57.226Z,2.15
2022-10-19T09:17:25.259Z,2.15
2022-10-19T09:30:21.071Z,2.08
2022-10-19T09:32:51.033Z,2.10
2022-10-19T09:35:27.491Z,2.00
2022-10-19T09:37:56.715Z,1.92
2022-10-19T09:40:26.895Z,1.45
2022-10-19T09:42:58.499Z,1.52
2022-10-19T09:45:35.267Z,1.83
2022-10-19T09:48:12.777Z,1.75
2022-10-19T09:50:44.215Z,1.70
2022-10-19T09:53:20.432Z,1.80
2022-10-19T09:55:52.260Z,1.70
2022-10-19T09:58:21.700Z,2.17
2022-10-19T10:00:51.528Z,1.48
2022-10-19T10:03:28.940Z,1.70
2022-10-19T10:05:58.714Z,1.45
2022-10-19T10:08:28.931Z,1.40
2022-10-19T10:11:06.985Z,1.40
2022-10-19T10:13:40.221Z,1.20
2022-10-19T10:16:10.761Z,1.17
2022-10-19T10:18:50.982Z,1.48
2022-10-19T10:21:25.674Z,1.08
2022-10-19T10:24:03.607Z,1.17
2022-10-19T10:26:31.356Z,1.20
2022-10-19T10:31:31.050Z,1.13
2022-10-19T10:34:12.208Z,1.40
2022-10-19T10:36:52.877Z,1.33
2022-10-19T10:39:20.535Z,1.40
2022-10-19T10:41:50.041Z,1.25
2022-10-19T10:44:23.220Z,1.00
2022-10-19T10:46:56.470Z,1.10
2022-10-19T10:49:27.670Z,1.10
2022-10-19T10:51:58.000Z,1.05
2022-10-19T10:54:27.728Z,1.10
2022-10-19T10:57:13.928Z,1.30
2022-10-19T10:59:50.395Z,1.10
2022-10-19T11:02:36.739Z,1.17
2022-10-19T11:05:08.499Z,1.20
2022-10-19T11:07:37.824Z,1.10
2022-10-19T11:10:14.388Z,1.17
2022-10-19T11:12:48.688Z,1.05
2022-10-19T11:15:23.794Z,1.10
2022-10-19T11:18:02.647Z,1.00
2022-10-19T11:20:33.383Z,0.90
2022-10-19T11:23:09.594Z,0.90
2022-10-19T11:25:49.334Z,0.82
2022-10-19T11:28:30.832Z,0.85
2022-10-19T11:31:07.525Z,1.15
2022-10-19T11:33:48.842Z,0.80
2022-10-19T11:36:31.302Z,1.00
2022-10-19T11:39:13.450Z,1.05
2022-10-19T11:41:50.334Z,1.00
2022-10-19T11:44:30.384Z,0.90
2022-10-19T11:47:17.739Z,0.80
2022-10-19T11:49:56.202Z,1.10
2022-10-19T11:52:32.649Z,0.90
2022-10-19T11:55:14.919Z,0.80
2022-10-19T11:57:48.018Z,0.80
2022-10-19T12:00:39.337Z,0.93
2022-10-19T12:03:34.620Z,1.00
2022-10-19T12:06:11.806Z,0.90
2022-10-19T12:08:55.395Z,1.00
2022-10-19T12:11:36.533Z,0.80
2022-10-19T12:14:07.078Z,0.95
2022-10-19T12:16:40.928Z,0.90
2022-10-19T12:19:16.985Z,1.05
2022-10-19T12:21:46.726Z,0.90
2022-10-19T12:24:18.618Z,0.90
2022-10-19T12:26:48.045Z,1.05
2022-10-19T12:29:18.786Z,1.17
2022-10-19T12:31:48.081Z,1.15
2022-10-19T12:34:28.669Z,1.20
2022-10-19T12:36:59.917Z,1.20
2022-10-19T12:39:35.937Z,1.20
2022-10-19T12:42:13.658Z,1.10
2022-10-19T12:45:14.497Z,1.42
2022-10-19T12:52:44.360Z,1.50
2022-10-19T12:55:34.597Z,1.10
2022-10-19T12:58:05.854Z,1.00
2022-10-19T13:00:35.318Z,1.40
2022-10-19T13:03:07.066Z,1.40
2022-10-19T13:05:36.981Z,1.30
2022-10-19T13:08:10.601Z,1.20
2022-10-19T13:10:41.440Z,1.08
2022-10-19T13:13:52.950Z,1.20
2022-10-19T13:16:54.254Z,1.50
2022-10-19T13:19:23.474Z,1.35
2022-10-19T13:21:55.239Z,1.23
2022-10-19T13:24:30.771Z,1.17
2022-10-19T13:27:28.009Z,1.20
2022-10-19T13:29:56.307Z,1.13
2022-10-19T13:32:44.236Z,1.33
2022-10-19T13:35:24.757Z,1.02
2022-10-19T13:40:57.123Z,1.30
2022-10-19T13:43:27.093Z,1.10
2022-10-19T13:45:56.278Z,1.20
2022-10-19T13:48:32.721Z,1.17
2022-10-19T13:51:11.920Z,1.20
2022-10-19T13:53:49.877Z,1.10
2022-10-19T13:56:39.979Z,0.90
2022-10-19T13:59:28.694Z,0.80
2022-10-19T14:02:31.713Z,0.82
2022-10-19T14:05:19.554Z,1.20
2022-10-19T14:08:02.098Z,1.00
2022-10-19T14:10:33.022Z,1.00
2022-10-19T14:13:02.972Z,1.08
2022-10-19T14:15:33.338Z,1.20
2022-10-19T14:18:03.843Z,0.77
2022-10-19T14:20:35.377Z,1.13
2022-10-19T14:23:21.324Z,0.82
2022-10-19T14:25:55.819Z,0.90
2022-10-19T14:28:24.484Z,0.82
2022-10-19T14:31:00.377Z,1.20
2022-10-19T14:33:29.364Z,0.88
2022-10-19T14:35:57.687Z,1.00
2022-10-19T14:38:32.669Z,0.80
2022-10-19T14:41:02.267Z,1.35
2022-10-19T14:43:31.163Z,0.95
2022-10-19T14:46:13.692Z,0.73
2022-10-19T14:48:45.276Z,0.82
2022-10-19T14:51:23.534Z,1.00
2022-10-19T14:53:55.135Z,0.98
2022-10-19T14:56:28.555Z,0.93
2022-10-19T14:59:00.221Z,0.93
2022-10-19T15:01:28.154Z,1.02
2022-10-19T15:03:56.476Z,0.85
2022-10-19T15:06:27.942Z,1.00
2022-10-19T15:08:58.463Z,1.15
2022-10-19T15:11:31.316Z,1.13
2022-10-19T15:14:04.792Z,1.05
2022-10-19T15:16:52.893Z,1.20
2022-10-19T15:19:27.259Z,1.25
2022-10-19T15:22:13.892Z,1.05
2022-10-19T15:24:55.534Z,1.30
2022-10-19T15:27:32.032Z,1.00
2022-10-19T15:30:01.614Z,1.00
2022-10-19T15:32:33.485Z,1.00
2022-10-19T15:35:01.484Z,1.20
2022-10-19T15:37:29.244Z,1.58
2022-10-19T15:39:57.301Z,1.13
2022-10-19T15:42:37.293Z,1.23
2022-10-19T15:45:26.201Z,1.30
2022-10-19T15:48:18.425Z,1.27
2022-10-19T15:50:48.469Z,1.30
2022-10-19T15:53:16.485Z,1.40
2022-10-19T15:55:44.147Z,1.63
2022-10-19T15:58:14.409Z,1.58
2022-10-19T16:00:42.718Z,1.50
2022-10-19T16:03:10.323Z,1.48
2022-10-19T16:08:10.106Z,1.58
2022-10-19T16:10:40.002Z,1.70
2022-10-19T16:15:36.377Z,1.50
2022-10-19T16:18:04.046Z,1.75
2022-10-19T16:22:59.349Z,2.17
2022-10-19T16:27:54.593Z,1.70
2022-10-19T16:30:22.277Z,1.77
2022-10-19T16:32:51.253Z,1.98
2022-10-19T16:35:18.866Z,2.10
2022-10-19T16:40:14.013Z,2.00
2022-10-19T16:45:10.488Z,2.47
2022-10-19T16:47:38.169Z,2.35
2022-10-19T16:52:35.386Z,2.20
2022-10-19T16:55:03.274Z,2.65
2022-10-19T16:57:30.973Z,3.38
2022-10-19T17:02:26.168Z,3.20
2022-10-19T17:04:53.896Z,3.30
2022-10-19T17:09:54.681Z,2.97
2022-10-19T17:12:22.691Z,3.38
2022-10-19T17:14:51.242Z,2.88
2022-10-19T17:17:18.922Z,3.17
2022-10-19T17:19:46.764Z,3.58
2022-10-19T17:22:14.385Z,3.50
2022-10-19T17:24:46.188Z,3.40
2022-10-19T17:27:13.775Z,4.00
2022-10-19T17:29:41.456Z,3.00
2022-10-19T17:32:09.120Z,3.60
2022-10-19T17:34:36.748Z,3.42
2022-10-19T17:37:04.421Z,3.40
2022-10-19T17:39:32.649Z,3.35
2022-10-19T17:44:31.754Z,3.15
2022-10-19T17:47:00.708Z,3.90
2022-10-19T17:49:29.689Z,3.90
2022-10-19T17:51:57.349Z,4.18
2022-10-19T17:54:25.050Z,4.00
2022-10-19T17:56:52.701Z,3.67
2022-10-19T17:59:30.364Z,3.55
2022-10-19T18:02:02.694Z,4.00
2022-10-19T18:04:30.330Z,3.25
2022-10-19T18:06:58.046Z,3.60
2022-10-19T18:09:25.676Z,3.60
2022-10-19T18:11:53.293Z,3.42
2022-10-19T18:14:23.614Z,3.28
2022-10-19T18:16:52.051Z,3.40
2022-10-19T18:19:19.826Z,3.38
2022-10-19T18:21:49.122Z,3.50
2022-10-19T18:24:20.112Z,3.28
2022-10-19T18:26:48.871Z,3.58
2022-10-19T18:29:19.593Z,3.40
2022-10-19T18:31:51.645Z,3.53
2022-10-19T18:34:22.627Z,3.30
2022-10-19T18:36:50.485Z,3.00
2022-10-19T18:39:18.257Z,3.50
2022-10-19T18:41:46.117Z,3.55
2022-10-19T18:46:42.145Z,3.40
2022-10-19T18:51:40.497Z,3.53
2022-10-19T18:54:08.162Z,3.58
2022-10-19T18:56:36.488Z,3.15
2022-10-19T18:59:04.851Z,3.47
2022-10-19T19:01:32.541Z,3.53
2022-10-19T19:04:07.527Z,3.88
2022-10-19T19:06:38.188Z,3.38
2022-10-19T19:09:08.870Z,3.53
2022-10-19T19:11:38.438Z,3.80
2022-10-19T19:14:07.785Z,3.55
2022-10-19T19:16:37.196Z,3.90
2022-10-19T19:19:05.671Z,3.75
2022-10-19T19:21:34.992Z,3.90
2022-10-19T19:24:06.478Z,3.70
2022-10-19T19:26:36.172Z,3.40
2022-10-19T19:29:04.432Z,3.60
2022-10-19T19:31:32.500Z,3.38
2022-10-19T19:34:01.115Z,3.25
2022-10-19T19:36:29.805Z,3.20
2022-10-19T19:38:59.028Z,3.55
2022-10-19T19:41:28.823Z,3.33
2022-10-19T19:43:57.515Z,3.47
2022-10-19T19:46:25.162Z,3.40
2022-10-19T19:48:59.765Z,3.22
2022-10-19T19:51:28.104Z,3.67
2022-10-19T19:53:55.792Z,3.83
2022-10-19T19:56:24.382Z,3.50
2022-10-19T19:58:57.421Z,3.47
2022-10-19T20:01:25.259Z,3.25
2022-10-19T20:03:53.291Z,3.60
2022-10-19T20:06:23.663Z,3.53
2022-10-19T20:08:53.679Z,3.25
2022-10-19T20:11:21.947Z,3.45
2022-10-19T20:13:49.627Z,3.10
2022-10-19T20:16:28.166Z,3.35
2022-10-19T20:19:02.955Z,3.28
2022-10-19T20:21:31.786Z,3.70
2022-10-19T20:23:59.455Z,3.20
2022-10-19T20:26:28.227Z,3.88
2022-10-19T20:28:55.825Z,3.35
2022-10-19T20:31:25.657Z,2.90
2022-10-19T20:33:53.421Z,3.53
2022-10-19T20:36:23.223Z,3.58
2022-10-19T20:38:53.637Z,3.30
2022-10-19T20:41:23.862Z,3.22
2022-10-19T20:43:51.732Z,3.25
2022-10-19T20:46:22.268Z,3.40
2022-10-19T20:48:52.178Z,3.55
2022-10-19T20:51:23.048Z,3.33
2022-10-19T20:53:52.649Z,3.55
2022-10-19T20:56:23.149Z,3.33
2022-10-19T20:58:55.988Z,3.22
2022-10-19T21:01:24.223Z,3.05
2022-10-19T21:03:54.797Z,3.55
2022-10-19T21:06:24.442Z,3.00
2022-10-19T21:08:52.771Z,3.42
2022-10-19T21:11:23.149Z,2.92
2022-10-19T21:13:54.446Z,3.47
2022-10-19T21:16:23.399Z,2.95
2022-10-19T21:18:52.791Z,3.40
2022-10-19T21:21:22.693Z,3.38
2022-10-19T21:23:54.457Z,3.53
2022-10-19T21:26:22.347Z,3.08
2022-10-19T21:28:53.047Z,2.97
2022-10-19T21:31:21.534Z,3.35
2022-10-19T21:33:49.466Z,3.00
2022-10-19T21:36:19.612Z,2.60
2022-10-19T21:38:47.662Z,3.33
2022-10-19T21:46:14.043Z,2.55
2022-10-19T21:48:42.315Z,2.90
2022-10-19T21:51:21.826Z,2.88
2022-10-19T21:53:49.615Z,3.05
2022-10-19T21:56:17.737Z,2.60
2022-10-19T21:58:46.465Z,2.72
2022-10-19T22:01:14.505Z,2.83
2022-10-19T22:06:09.727Z,3.22
2022-10-19T22:08:39.077Z,2.65
2022-10-19T22:11:07.624Z,2.67
2022-10-19T22:13:35.581Z,3.05
2022-10-19T22:16:07.346Z,2.80
2022-10-19T22:18:34.996Z,3.00
2022-10-19T22:21:04.655Z,2.92
2022-10-19T22:23:32.447Z,3.00
2022-10-19T22:26:01.685Z,3.25
2022-10-19T22:28:29.706Z,3.30
2022-10-19T22:33:26.413Z,2.60
2022-10-19T22:35:55.137Z,2.67
2022-10-19T22:38:23.418Z,2.88
2022-10-19T22:41:46.219Z,2.63
2022-10-19T22:44:15.218Z,3.20
2022-10-19T22:46:42.928Z,2.67
2022-10-19T22:49:10.716Z,3.33
2022-10-19T22:51:38.387Z,3.53
2022-10-19T22:54:06.828Z,3.22
2022-10-19T22:56:34.540Z,3.22
2022-10-19T22:59:03.476Z,3.10
2022-10-19T23:01:32.538Z,3.00
2022-10-19T23:04:00.406Z,2.80
2022-10-19T23:06:28.200Z,3.13
2022-10-19T23:08:55.866Z,3.70
2022-10-19T23:11:25.713Z,3.00
2022-10-19T23:13:53.390Z,3.33
2022-10-19T23:16:21.076Z,2.88
2022-10-19T23:18:50.147Z,3.22
2022-10-19T23:21:17.813Z,2.72
2022-10-19T23:23:45.480Z,3.17
2022-10-19T23:26:15.090Z,3.60
2022-10-19T23:28:44.761Z,3.17
2022-10-19T23:31:14.801Z,3.35
2022-10-19T23:33:42.908Z,3.08
2022-10-19T23:38:42.013Z,3.35
2022-10-19T23:41:09.724Z,3.30
2022-10-19T23:43:38.363Z,3.63
2022-10-19T23:46:06.223Z,3.20
2022-10-19T23:48:34.780Z,2.75
2022-10-19T23:51:04.704Z,3.45
2022-10-19T23:53:38.419Z,2.90
2022-10-19T23:56:10.491Z,3.22
2022-10-19T23:58:38.122Z,2.88
